Terminal Aerodrome Forecast
Issued by NWS Twin Cities, MN

Home | Current Version | Previous Version | Text Only | Print | Product List | Glossary Off
Versions: 1 2 3 4 5 6 7 8 9 10 11 12 13 14 15 16 17 18 19 20 21 22

000
FTUS43 KMPX 201700
TAFEAU
TAF
KEAU 201727Z 2018/2118 34010KT P6SM SCT040
      TEMPO 2018/2022 BKN040
     FM210000 VRB03KT P6SM SKC
     FM211000 05004KT P6SM SKC
     FM211400 08007KT P6SM SKC=

USA.gov is the U.S. government's official web portal to all federal, state and local government web resources and services.